Frankford, Canada
Current Conditions -  °F | °C
As of 9:00 AM on Saturday 01 Nov 2014 (Local Time) from CYTR Reporting Station
Snow Showers Snow Showers  
Wind Chill: 28°   Ceiling: 4000
Heat Index: 36°   Visibility: 12mi
Dew Point: 34°   Wind: 10mph
Humidity: 93%   Direction: 10°N
Pressure: 30.14"   Gusts: NA
Location:  44.2°N, 77.6°W
Report Text: CYTR 011300Z 01009KT 12SM -SHSN OVC040 02/01 A3014 RMK SC8 SLP210
Loading
Personal Weather Stations






























Interactive Weather Map
Tropical Storm Tracking
New forecast layout! Learn more

10-Day Weather Forecast

Advertisements
Track Severe Weather on mobile